Incident Sukhoi Superjet 100-95B RA-89148, 13 Jan 2023
ASN logo
ASN Wikibase Occurrence # 305814
 
This information is added by users of ASN. Neither ASN nor the Flight Safety Foundation are responsible for the completeness or correctness of this information. If you feel this information is incomplete or incorrect, you can submit corrected information.

Date:13-JAN-2023
Time:06:56 UTC
Type:Silhouette image of generic SU95 model; specific model in this crash may look slightly different    
Sukhoi Superjet 100-95B
Owner/operator:Rossiya Airlines, opf Aeroflot
Registration: RA-89148
MSN: 95208
Fatalities:Fatalities: 0 / Occupants:
Other fatalities:0
Aircraft damage: None
Location:Saint Petersburg-Pulkovo Airport (LED/ULLI) -   Russia
Phase: Taxi
Nature:Passenger - Scheduled
Departure airport:Saint Petersburg-Pulkovo Airport (LED/ULLI)
Destination airport:Murmansk Airport (MMK/ULMM)
Confidence Rating: Information verified through data from accident investigation authorities
Narrative:
Aeroflot flight SU6343, a Sukhoi Superjet 100-95B, suffered a taxiway excursion when it skidded while turning from taxiway B toward runway 10L at Saint Petersburg-Pulkovo Airport (LED), Russia. The taxi speed at the time was 9 km per hour.
The aircraft became stuck and passengers deplaned and were bussed back to the terminal. The Superjet
was freed 1 hour and 45 minutes later and towed to the apron.

Weather about the incident time (0656Z):
ULLI 130730Z 18006G12MPS 150V230 9999 DRSN BKN010 BKN021CB OVC033 01/M02 Q1002 R10R/520540 R10L/422031 NOSIG
>> ULLI 130700Z 18009MPS 9999 DRSN BKN010 BKN018CB OVC033 01/M02 Q1002 R10L/422035 NOSIG
ULLI 130630Z 18008MPS 9999 DRSN BKN009 BKN018CB OVC033 00/M02 Q1002 R10L/422035 NOSIG
ULLI 130600Z 19009MPS 9999 DRSN SCT011 BKN019CB OVC033 00/M03 Q1001 RESHSN REBLSN R10L/422035 NOSIG

Sources:

https://www.murmansk.kp.ru/online/news/5094691/
https://www.flightradar24.com/data/flights/su6343#2ed63a4f
https://epp.genproc.gov.ru/web/sztp/mass-media/news?item=84537259
https://t.me/rossiya_airlines/756

Location

Media:


Images:


Photo: St. Petersburg Transport Prosecutor's Office

Revision history:

Date/timeContributorUpdates
13-Jan-2023 11:40 harro Added
13-Jan-2023 11:42 harro Updated [Location, Embed code, Narrative]
13-Jan-2023 11:48 harro Updated [Source, Category, Photo]
13-Jan-2023 13:03 vasilf Updated [Source, Embed code, Damage, Narrative]
13-Jan-2023 13:04 harro Updated [Narrative]

Corrections or additions? ... Edit this accident description

The Aviation Safety Network is an exclusive service provided by:
Quick Links:

CONNECT WITH US: FSF Facebook FSF Twitter FSF Youtube FSF LinkedIn FSF Instagram

©2023 Flight Safety Foundation

701 N. Fairfax St., Ste. 250
Alexandria, Virginia 22314
www.FlightSafety.org